Time;durP1;ratioP1;P1;durP2;ratioP2;P2;SDS_P1;SDS_P2;PMS_P1;PMS_P2;Temp;Humidity;BMP_temperature;BMP_pressure;BME280_temperature;BME280_humidity;BME280_pressure;Samples;Min_cycle;Max_cycle;Signal;HPM_P1;HPM_P2
2021/11/15 00:01:14;;;;;;;0.88;0.60;;;;;;;2.53;63.84;100919.31;4972556;28;20685;-80
2021/11/15 00:03:42;;;;;;;0.63;0.57;;;;;;;2.37;63.38;100910.06;4991576;28;20050;-80
2021/11/15 00:06:08;;;;;;;1.25;0.70;;;;;;;2.52;63.38;100932.09;4976911;28;20042;-79
2021/11/15 00:08:34;;;;;;;0.88;0.70;;;;;;;2.57;63.24;100940.84;5007927;28;20046;-78
2021/11/15 00:11:00;;;;;;;0.70;0.70;;;;;;;2.57;63.00;100935.72;4985247;28;20042;-80
2021/11/15 00:13:26;;;;;;;0.80;0.60;;;;;;;2.60;62.89;100924.72;4992373;28;20523;-78
2021/11/15 00:15:51;;;;;;;1.02;0.80;;;;;;;2.64;62.53;100931.75;4987059;28;20499;-76
2021/11/15 00:18:18;;;;;;;0.90;0.80;;;;;;;2.64;62.33;100929.16;5006069;28;20056;-76
2021/11/15 00:20:44;;;;;;;1.00;0.77;;;;;;;2.57;61.60;100938.28;4991716;28;20046;-78
2021/11/15 00:23:12;;;;;;;1.15;0.80;;;;;;;2.59;61.82;100939.22;5004653;28;20512;-77
2021/11/15 00:25:38;;;;;;;1.02;0.88;;;;;;;2.56;61.63;100940.00;4965519;28;20077;-77
2021/11/15 00:28:04;;;;;;;1.05;0.80;;;;;;;2.56;61.37;100944.25;4977206;28;20052;-77
2021/11/15 00:30:30;;;;;;;1.00;0.90;;;;;;;2.52;61.83;100938.09;4987096;28;20105;-79
2021/11/15 00:32:56;;;;;;;0.90;0.70;;;;;;;2.55;61.35;100952.75;5006975;28;20108;-79
2021/11/15 00:35:22;;;;;;;1.38;0.70;;;;;;;2.37;61.12;100937.47;4991252;28;20059;-78
2021/11/15 00:37:49;;;;;;;1.25;0.80;;;;;;;2.58;61.39;100960.59;4994953;28;20606;-78
2021/11/15 00:40:19;;;;;;;0.73;0.70;;;;;;;2.53;61.00;100954.41;5008978;28;20069;-80
2021/11/15 00:42:45;;;;;;;1.00;0.60;;;;;;;2.40;60.86;100942.72;5004781;28;20413;-79
2021/11/15 00:45:14;;;;;;;0.50;0.50;;;;;;;2.47;59.93;100947.31;4985809;28;20053;-80
2021/11/15 00:47:40;;;;;;;1.25;0.60;;;;;;;2.49;60.23;100962.81;4986733;28;20049;-78
2021/11/15 00:50:12;;;;;;;1.05;0.52;;;;;;;2.42;60.22;100956.53;4989957;28;20045;-80
2021/11/15 00:52:38;;;;;;;0.75;0.60;;;;;;;2.39;60.04;100951.25;5006368;28;20107;-80
2021/11/15 00:55:05;;;;;;;0.57;0.50;;;;;;;2.51;60.12;100962.03;4992202;28;20404;-79
2021/11/15 00:57:31;;;;;;;0.50;0.50;;;;;;;2.54;59.61;100971.56;4960230;28;20044;-79
2021/11/15 00:59:57;;;;;;;0.70;0.70;;;;;;;2.53;59.74;100977.53;4984635;28;20038;-78
2021/11/15 01:02:23;;;;;;;0.65;0.65;;;;;;;2.55;59.23;100978.47;4990291;28;20416;-79
2021/11/15 01:04:50;;;;;;;0.85;0.75;;;;;;;2.44;59.20;100962.59;5002597;28;20112;-79
2021/11/15 01:07:16;;;;;;;0.95;0.60;;;;;;;2.49;58.75;100985.94;5006851;28;20042;-80
2021/11/15 01:09:42;;;;;;;0.93;0.70;;;;;;;2.54;59.05;100984.41;4985158;28;20033;-78
2021/11/15 01:12:08;;;;;;;0.95;0.60;;;;;;;2.47;58.36;100979.84;5003875;28;20057;-77
2021/11/15 01:14:34;;;;;;;0.50;0.50;;;;;;;2.45;58.86;100964.34;5003787;28;21022;-80
2021/11/15 01:16:59;;;;;;;0.52;0.52;;;;;;;2.47;58.64;100990.13;4973379;28;20092;-78
2021/11/15 01:19:25;;;;;;;1.02;0.52;;;;;;;2.32;58.37;100987.75;5006402;28;20144;-77
2021/11/15 01:21:51;;;;;;;0.80;0.60;;;;;;;2.41;58.16;101026.72;5003857;28;20053;-79
2021/11/15 01:24:18;;;;;;;0.50;0.50;;;;;;;2.39;58.40;101021.47;4983748;28;20045;-78
2021/11/15 01:26:44;;;;;;;0.47;0.47;;;;;;;2.31;58.32;101002.31;4975101;28;20050;-79
2021/11/15 01:29:11;;;;;;;0.50;0.40;;;;;;;2.32;58.21;101004.03;5006564;28;20045;-79
2021/11/15 01:31:38;;;;;;;0.40;0.40;;;;;;;2.43;58.29;101024.19;5001509;28;20054;-77
2021/11/15 01:34:06;;;;;;;0.82;0.40;;;;;;;2.28;58.00;101001.28;4958799;28;20129;-79
2021/11/15 01:36:33;;;;;;;0.80;0.60;;;;;;;2.52;57.95;101027.19;5013039;28;20076;-78
2021/11/15 01:38:59;;;;;;;0.40;0.40;;;;;;;2.50;58.15;101031.38;4983325;28;20049;-78
2021/11/15 01:41:25;;;;;;;0.50;0.50;;;;;;;2.54;57.78;101028.09;5004974;28;20037;-78
2021/11/15 01:43:51;;;;;;;0.50;0.50;;;;;;;2.37;57.23;101012.84;4975817;28;20058;-78
2021/11/15 01:46:18;;;;;;;0.65;0.40;;;;;;;2.40;57.42;101040.38;5002811;28;20054;-79
2021/11/15 01:48:44;;;;;;;0.50;0.50;;;;;;;2.35;57.92;101017.03;4989727;28;20046;-78
2021/11/15 01:51:10;;;;;;;1.33;0.40;;;;;;;2.30;57.31;101017.63;4984518;28;20971;-77
2021/11/15 01:53:36;;;;;;;0.38;0.38;;;;;;;2.44;57.80;101056.78;5004324;28;20145;-79
2021/11/15 01:56:06;;;;;;;0.80;0.32;;;;;;;2.41;57.40;101053.28;4996912;28;20069;-76
2021/11/15 01:58:32;;;;;;;0.57;0.50;;;;;;;2.36;57.46;101070.16;5002852;28;20042;-77
2021/11/15 02:00:59;;;;;;;2.05;0.52;;;;;;;2.22;57.41;101030.13;4984693;28;20456;-80
2021/11/15 02:03:27;;;;;;;0.90;0.47;;;;;;;2.42;57.45;101061.88;4985669;28;20181;-76
2021/11/15 02:05:57;;;;;;;0.68;0.52;;;;;;;2.43;57.16;101071.31;4979895;28;20045;-80
2021/11/15 02:08:23;;;;;;;1.98;0.40;;;;;;;2.39;57.46;101059.16;4996434;28;20044;-78
2021/11/15 02:10:49;;;;;;;0.45;0.40;;;;;;;2.44;57.23;101061.94;5004027;28;20038;-77
2021/11/15 02:13:20;;;;;;;0.93;0.52;;;;;;;2.45;57.13;101063.69;5003394;28;20102;-77
2021/11/15 02:15:47;;;;;;;0.77;0.55;;;;;;;2.39;57.21;101061.72;5003934;28;20082;-78
2021/11/15 02:18:13;;;;;;;0.60;0.40;;;;;;;2.38;57.04;101057.41;4973008;28;20041;-77
2021/11/15 02:20:50;;;;;;;0.80;0.40;;;;;;;2.54;57.32;101085.53;4957162;28;20096;-79
2021/11/15 02:23:18;;;;;;;0.75;0.50;;;;;;;2.45;57.00;101073.97;4987966;28;20038;-78
2021/11/15 02:25:46;;;;;;;0.40;0.40;;;;;;;2.42;57.26;101072.16;4999318;28;20482;-77
2021/11/15 02:28:12;;;;;;;0.73;0.50;;;;;;;2.39;56.63;101067.72;4974956;28;20042;-78
2021/11/15 02:30:40;;;;;;;0.98;0.50;;;;;;;2.37;57.70;101061.66;4976506;28;20042;-79
2021/11/15 02:33:06;;;;;;;2.75;0.40;;;;;;;2.31;57.21;101063.06;4990676;28;20326;-79
2021/11/15 02:35:32;;;;;;;0.45;0.40;;;;;;;2.46;57.15;101110.00;5003987;28;20069;-78
2021/11/15 02:37:58;;;;;;;0.93;0.50;;;;;;;2.49;57.49;101114.41;4977175;28;20093;-78
2021/11/15 02:40:26;;;;;;;1.60;0.50;;;;;;;2.55;57.28;101109.53;4989424;28;20046;-77
2021/11/15 02:42:53;;;;;;;2.15;0.50;;;;;;;2.49;57.42;101101.56;5010578;28;20114;-78
2021/11/15 02:45:20;;;;;;;1.05;0.60;;;;;;;2.49;57.24;101112.72;5011053;28;20042;-77
2021/11/15 02:47:47;;;;;;;0.77;0.50;;;;;;;2.44;57.84;101116.75;4976537;28;20059;-78
2021/11/15 02:50:16;;;;;;;0.50;0.50;;;;;;;2.38;57.53;101113.94;4991906;28;20038;-79
2021/11/15 02:52:48;;;;;;;0.45;0.45;;;;;;;2.31;57.21;101107.63;4957385;28;20045;-77
2021/11/15 02:55:15;;;;;;;0.73;0.43;;;;;;;2.28;57.38;101117.75;4970629;28;20041;-78
2021/11/15 02:57:41;;;;;;;2.90;0.50;;;;;;;2.27;57.57;101116.00;4989784;28;20038;-78
2021/11/15 03:00:17;;;;;;;0.40;0.40;;;;;;;2.28;57.73;101129.72;4993401;28;20050;-77
2021/11/15 03:02:44;;;;;;;0.38;0.30;;;;;;;2.30;57.85;101129.00;5004410;28;20160;-78
2021/11/15 03:05:09;;;;;;;1.10;0.70;;;;;;;2.23;57.45;101129.50;4957981;28;20066;-77
2021/11/15 03:07:35;;;;;;;0.50;0.45;;;;;;;2.09;58.13;101104.06;4975556;28;20045;-79
2021/11/15 03:10:01;;;;;;;0.40;0.40;;;;;;;2.30;57.93;101125.53;5008333;28;20480;-80
2021/11/15 03:12:33;;;;;;;0.75;0.70;;;;;;;2.46;58.08;101138.25;4991839;28;20100;-77
2021/11/15 03:14:58;;;;;;;1.00;0.75;;;;;;;2.50;57.25;101141.88;4995860;28;20034;-79
2021/11/15 03:17:25;;;;;;;0.80;0.80;;;;;;;2.49;57.96;101155.53;4989842;28;20060;-77
2021/11/15 03:19:51;;;;;;;0.50;0.50;;;;;;;2.33;57.45;101131.69;5004284;28;20088;-77
2021/11/15 03:22:17;;;;;;;1.45;0.70;;;;;;;2.39;57.63;101142.25;4991595;28;20046;-79
2021/11/15 03:24:43;;;;;;;1.67;1.00;;;;;;;2.44;58.05;101131.31;4959542;28;20038;-81
2021/11/15 03:27:09;;;;;;;1.50;1.17;;;;;;;2.41;57.70;101126.91;4989470;28;20050;-76
2021/11/15 03:29:40;;;;;;;1.20;1.00;;;;;;;2.21;57.76;101106.31;4987421;28;20532;-79
2021/11/15 03:32:06;;;;;;;1.33;1.00;;;;;;;2.44;57.63;101144.16;5008613;28;20041;-80
2021/11/15 03:34:33;;;;;;;1.33;0.80;;;;;;;2.41;57.57;101156.03;5012127;28;20034;-78
2021/11/15 03:36:58;;;;;;;2.10;1.00;;;;;;;2.44;58.21;101159.56;5013090;28;20038;-78
2021/11/15 03:39:24;;;;;;;0.93;0.60;;;;;;;2.33;57.81;101153.94;4992114;28;20049;-80
2021/11/15 03:41:50;;;;;;;0.98;0.55;;;;;;;2.36;57.82;101174.63;4991358;28;20041;-78
2021/11/15 03:44:17;;;;;;;0.75;0.50;;;;;;;2.36;57.66;101190.03;4969886;28;20042;-79
2021/11/15 03:46:44;;;;;;;1.55;0.75;;;;;;;2.33;57.88;101185.63;4989985;28;20042;-77
2021/11/15 03:49:14;;;;;;;0.50;0.50;;;;;;;2.40;57.88;101190.25;5006672;28;20045;-78
2021/11/15 03:51:41;;;;;;;1.35;0.70;;;;;;;2.34;58.01;101186.53;5005447;28;20034;-77
2021/11/15 03:54:07;;;;;;;1.60;0.70;;;;;;;2.34;58.14;101181.38;4982312;28;20080;-79
2021/11/15 03:56:33;;;;;;;0.55;0.52;;;;;;;2.24;58.18;101154.38;4986588;28;20130;-77
2021/11/15 03:59:06;;;;;;;0.68;0.40;;;;;;;2.37;58.16;101187.53;4992802;28;20048;-77
2021/11/15 04:01:35;;;;;;;1.10;0.50;;;;;;;2.37;58.04;101184.09;4996430;28;20123;-80
2021/11/15 04:04:08;;;;;;;0.45;0.30;;;;;;;2.39;57.86;101191.06;4997190;28;20057;-78
2021/11/15 04:06:47;;;;;;;1.27;0.40;;;;;;;2.23;58.29;101175.75;4997966;28;20042;-77
2021/11/15 04:09:13;;;;;;;0.50;0.30;;;;;;;2.33;57.76;101187.34;4996987;28;20050;-77
2021/11/15 04:11:39;;;;;;;0.30;0.30;;;;;;;2.29;57.74;101195.69;4981900;28;20076;-78
2021/11/15 04:14:08;;;;;;;0.43;0.40;;;;;;;2.19;57.46;101187.56;4979949;28;20046;-78
2021/11/15 04:16:35;;;;;;;0.43;0.40;;;;;;;2.21;57.57;101190.19;4976409;28;20528;-78
2021/11/15 04:19:09;;;;;;;0.75;0.50;;;;;;;2.21;57.54;101205.63;4992245;28;20048;-80
2021/11/15 04:21:35;;;;;;;0.45;0.38;;;;;;;2.33;57.06;101233.56;5007132;28;20552;-78
2021/11/15 04:24:02;;;;;;;0.50;0.40;;;;;;;2.18;57.84;101192.63;4996193;28;20049;-79
2021/11/15 04:26:27;;;;;;;1.58;0.60;;;;;;;2.29;57.41;101227.41;4988803;28;20038;-77
2021/11/15 04:28:55;;;;;;;0.93;0.82;;;;;;;2.26;57.09;101233.28;4977192;28;20100;-78
2021/11/15 04:31:22;;;;;;;2.05;0.85;;;;;;;2.21;57.62;101249.28;5010482;28;20086;-76
2021/11/15 04:33:48;;;;;;;0.77;0.60;;;;;;;2.17;57.38;101240.56;4987951;28;20053;-76
2021/11/15 04:36:14;;;;;;;1.75;0.65;;;;;;;2.28;57.72;101263.28;5015402;28;20042;-77
2021/11/15 04:38:41;;;;;;;0.43;0.43;;;;;;;2.32;57.95;101268.66;5008460;28;20046;-78
2021/11/15 04:41:08;;;;;;;0.70;0.60;;;;;;;2.17;57.37;101238.00;4974081;28;20053;-78
2021/11/15 04:43:34;;;;;;;2.00;0.75;;;;;;;2.24;57.64;101255.44;4985551;28;20038;-78
2021/11/15 04:46:01;;;;;;;1.60;0.70;;;;;;;2.33;57.30;101284.97;4976554;28;20113;-78
2021/11/15 04:48:28;;;;;;;1.83;0.70;;;;;;;2.32;57.70;101284.06;4975507;28;20037;-77
2021/11/15 04:50:56;;;;;;;1.30;0.70;;;;;;;2.33;57.53;101290.97;5005419;28;20060;-78
2021/11/15 04:53:22;;;;;;;3.30;0.70;;;;;;;2.42;57.66;101303.41;5006582;28;20052;-80
2021/11/15 04:55:49;;;;;;;2.15;0.80;;;;;;;2.31;57.64;101290.03;4993394;28;20037;-80
2021/11/15 04:58:16;;;;;;;3.72;0.90;;;;;;;2.38;57.58;101315.19;5011825;28;20041;-76
2021/11/15 05:00:43;;;;;;;1.13;0.75;;;;;;;2.30;57.54;101318.19;5004487;28;20096;-77
2021/11/15 05:03:09;;;;;;;0.88;0.50;;;;;;;2.22;57.36;101320.41;5008815;28;20061;-78
2021/11/15 05:05:34;;;;;;;0.95;0.60;;;;;;;2.23;57.92;101324.72;4998295;28;20049;-77
2021/11/15 05:08:00;;;;;;;0.50;0.50;;;;;;;2.13;57.42;101322.50;4989136;28;20045;-78
2021/11/15 05:10:29;;;;;;;2.60;0.70;;;;;;;2.18;57.56;101336.47;5014012;28;20051;-78
2021/11/15 05:12:57;;;;;;;1.42;0.50;;;;;;;2.18;57.46;101334.78;5013558;28;20053;-79
2021/11/15 05:15:24;;;;;;;0.60;0.57;;;;;;;2.26;57.38;101337.72;5007726;28;20046;-79
2021/11/15 05:17:51;;;;;;;0.75;0.50;;;;;;;2.33;57.33;101336.34;4989123;28;20054;-77
2021/11/15 05:20:19;;;;;;;1.15;0.50;;;;;;;2.39;57.42;101340.09;4975156;28;20045;-78
2021/11/15 05:22:45;;;;;;;0.73;0.43;;;;;;;2.19;57.64;101308.28;4990893;28;20072;-77
2021/11/15 05:25:13;;;;;;;0.60;0.40;;;;;;;2.36;57.53;101339.06;4988040;28;20530;-79
2021/11/15 05:27:39;;;;;;;0.73;0.50;;;;;;;2.49;57.11;101350.84;5005246;28;20104;-78
2021/11/15 05:30:08;;;;;;;0.95;0.60;;;;;;;2.47;56.77;101360.16;4986224;28;20042;-78
2021/11/15 05:32:34;;;;;;;1.20;0.60;;;;;;;2.39;56.23;101365.78;4986889;28;20048;-80
2021/11/15 05:35:00;;;;;;;1.10;0.55;;;;;;;2.32;56.02;101361.13;5008061;28;20041;-78
2021/11/15 05:37:29;;;;;;;1.08;0.70;;;;;;;2.27;55.75;101360.03;5009181;28;20145;-80
2021/11/15 05:39:55;;;;;;;0.63;0.50;;;;;;;2.22;56.14;101341.81;4991099;28;20133;-78
2021/11/15 05:42:28;;;;;;;1.55;0.70;;;;;;;2.51;56.10;101374.91;4975120;28;20076;-79
2021/11/15 05:44:56;;;;;;;0.98;0.70;;;;;;;2.49;55.78;101371.38;4992543;28;20616;-80
2021/11/15 05:47:29;;;;;;;0.98;0.77;;;;;;;2.59;55.88;101376.16;4977352;28;20057;-78
2021/11/15 05:49:56;;;;;;;1.15;0.80;;;;;;;2.53;55.62;101375.88;4991930;28;20065;-79
2021/11/15 05:52:42;;;;;;;0.98;0.68;;;;;;;2.29;55.87;101349.84;4991607;28;20041;-80
2021/11/15 05:55:29;;;;;;;1.70;0.90;;;;;;;2.62;55.46;101416.56;5001171;28;20046;-80
2021/11/15 05:57:56;;;;;;;2.38;1.52;;;;;;;2.49;55.22;101379.97;4980345;28;20137;-80
2021/11/15 06:00:25;;;;;;;2.40;1.20;;;;;;;2.74;55.37;101406.00;4990898;28;20440;-79
2021/11/15 06:02:52;;;;;;;2.95;1.50;;;;;;;2.61;55.29;101377.13;4997563;28;20053;-77
2021/11/15 06:05:22;;;;;;;3.33;1.00;;;;;;;2.80;55.21;101402.03;5013559;28;20041;-78
2021/11/15 06:08:00;;;;;;;1.67;1.15;;;;;;;2.44;54.52;101352.28;5026135;28;20040;-79
2021/11/15 06:10:31;;;;;;;1.90;0.93;;;;;;;2.26;54.80;101318.03;5016855;28;20497;-80
2021/11/15 06:12:58;;;;;;;1.17;0.90;;;;;;;2.41;54.67;101340.19;4973516;28;20054;-78
2021/11/15 06:15:24;;;;;;;1.30;0.90;;;;;;;2.79;54.04;101405.41;4974234;28;20029;-78
2021/11/15 06:17:51;;;;;;;2.53;0.73;;;;;;;2.61;54.23;101369.41;5000802;28;20092;-77
2021/11/15 06:20:19;;;;;;;1.75;0.90;;;;;;;2.88;54.67;101409.22;5002312;28;20042;-78
2021/11/15 06:22:46;;;;;;;1.92;1.00;;;;;;;2.75;54.22;101388.06;4991963;28;20054;-77
2021/11/15 06:25:15;;;;;;;2.08;0.88;;;;;;;2.77;54.43;101393.28;5002964;28;20046;-80
2021/11/15 06:27:41;;;;;;;2.10;0.90;;;;;;;2.89;54.04;101411.88;5031428;28;20040;-77
2021/11/15 06:30:12;;;;;;;1.10;0.75;;;;;;;3.08;54.42;101421.38;5015354;28;20039;-77
2021/11/15 06:32:39;;;;;;;1.95;0.90;;;;;;;2.86;53.83;101386.03;5013637;28;20038;-78
2021/11/15 06:35:05;;;;;;;2.17;0.93;;;;;;;3.09;54.10;101419.66;5012841;28;20048;-78
2021/11/15 06:37:35;;;;;;;2.28;0.90;;;;;;;3.06;54.15;101405.00;4997870;28;20145;-79
2021/11/15 06:40:01;;;;;;;4.22;0.95;;;;;;;3.20;53.96;101430.47;5026016;28;20420;-78
2021/11/15 06:42:29;;;;;;;0.95;0.82;;;;;;;3.25;53.20;101440.16;4967333;28;20041;-80
2021/11/15 06:44:54;;;;;;;1.30;0.90;;;;;;;3.28;53.72;101447.16;5015292;28;20088;-77
2021/11/15 06:47:21;;;;;;;1.20;1.10;;;;;;;3.34;53.60;101444.00;4999298;28;20053;-79
2021/11/15 06:49:51;;;;;;;1.60;1.08;;;;;;;3.29;53.54;101426.63;4996032;28;20176;-82
2021/11/15 06:52:19;;;;;;;2.75;1.00;;;;;;;3.43;53.41;101462.41;4991816;28;20046;-78
2021/11/15 06:54:48;;;;;;;3.20;1.75;;;;;;;3.35;52.39;101463.78;4976413;28;20112;-79
2021/11/15 06:57:14;;;;;;;4.40;2.10;;;;;;;3.39;53.37;101470.84;5009837;28;20045;-79
2021/11/15 06:59:41;;;;;;;3.15;1.85;;;;;;;3.41;53.44;101482.94;4995469;28;20053;-81
2021/11/15 07:02:08;;;;;;;4.45;2.05;;;;;;;3.46;53.14;101472.88;4990650;28;20046;-79
2021/11/15 07:04:35;;;;;;;4.13;1.85;;;;;;;3.22;52.75;101455.44;5011288;28;20482;-79
2021/11/15 07:07:01;;;;;;;31.58;11.82;;;;;;;3.36;52.75;101492.13;4996153;28;20406;-79
2021/11/15 07:09:27;;;;;;;3.05;1.77;;;;;;;3.15;52.63;101462.00;4980541;28;20077;-76
2021/11/15 07:11:54;;;;;;;4.80;2.58;;;;;;;3.30;53.26;101495.31;5009938;28;20074;-80
2021/11/15 07:14:22;;;;;;;1.40;1.20;;;;;;;3.45;53.56;101510.59;4999730;28;20054;-79
2021/11/15 07:16:48;;;;;;;2.35;1.27;;;;;;;3.46;53.16;101514.03;5001616;28;20061;-80
2021/11/15 07:19:14;;;;;;;5.53;2.78;;;;;;;3.45;53.07;101499.41;4979482;28;20501;-79
2021/11/15 07:21:40;;;;;;;3.13;1.25;;;;;;;3.07;52.80;101434.16;4992851;28;20042;-80
2021/11/15 07:24:09;;;;;;;2.22;1.30;;;;;;;2.90;52.60;101421.38;4976120;28;20445;-78
2021/11/15 07:26:35;;;;;;;2.05;1.20;;;;;;;3.08;52.91;101474.50;4970672;28;20044;-79
2021/11/15 07:29:00;;;;;;;2.88;1.55;;;;;;;3.49;53.77;101532.22;4977367;28;20112;-78
2021/11/15 07:31:29;;;;;;;1.65;1.10;;;;;;;3.40;52.54;101511.19;4997314;28;20049;-79
2021/11/15 07:33:56;;;;;;;3.28;1.48;;;;;;;3.47;53.36;101529.56;5009707;28;20077;-79
2021/11/15 07:36:23;;;;;;;2.85;1.30;;;;;;;3.06;52.79;101465.81;5005852;28;20033;-78
2021/11/15 07:38:49;;;;;;;2.45;1.20;;;;;;;3.52;53.61;101545.22;5007475;28;20083;-79
2021/11/15 07:41:19;;;;;;;3.30;1.52;;;;;;;3.46;53.32;101540.69;4990895;28;20592;-76
2021/11/15 07:43:44;;;;;;;2.58;1.25;;;;;;;3.44;53.20;101532.00;5000796;28;20042;-78
2021/11/15 07:46:10;;;;;;;1.77;1.00;;;;;;;3.55;53.35;101565.97;4991845;28;20058;-79
2021/11/15 07:48:36;;;;;;;1.42;1.02;;;;;;;3.68;53.25;101582.00;4988454;28;20041;-79
2021/11/15 07:51:02;;;;;;;3.03;1.55;;;;;;;3.57;53.78;101573.75;4990834;28;20408;-79
2021/11/15 07:53:30;;;;;;;2.20;1.40;;;;;;;3.56;53.24;101565.16;4992806;28;20075;-78
2021/11/15 07:55:59;;;;;;;2.20;1.30;;;;;;;3.54;53.35;101561.63;4994429;28;20042;-78
2021/11/15 07:58:25;;;;;;;3.08;1.70;;;;;;;3.68;52.83;101618.94;5018816;28;20057;-77
2021/11/15 08:00:54;;;;;;;1.45;0.90;;;;;;;3.12;52.94;101507.28;4970486;28;20050;-82
2021/11/15 08:03:19;;;;;;;1.10;0.82;;;;;;;3.44;53.12;101555.16;4994264;28;20089;-79
2021/11/15 08:05:45;;;;;;;1.27;0.70;;;;;;;3.70;52.79;101614.75;5007524;28;20383;-79
2021/11/15 08:08:12;;;;;;;1.65;0.80;;;;;;;3.57;52.41;101614.94;4990050;28;20053;-80
2021/11/15 08:10:39;;;;;;;1.08;0.90;;;;;;;3.39;52.59;101573.78;4990525;28;20064;-80
2021/11/15 08:13:04;;;;;;;1.50;0.88;;;;;;;3.65;52.58;101618.78;4960449;28;20042;-80
2021/11/15 08:15:30;;;;;;;1.00;0.70;;;;;;;3.67;52.79;101621.44;4992534;28;20125;-79
2021/11/15 08:17:59;;;;;;;0.90;0.80;;;;;;;3.52;51.93;101586.41;4993230;28;20598;-79
2021/11/15 08:20:31;;;;;;;0.80;0.80;;;;;;;3.72;51.38;101631.16;4963686;28;20018;-78
2021/11/15 08:22:59;;;;;;;;;;;;;;;3.79;51.96;101646.91;5005874;28;20037;-80
2021/11/15 08:25:57;;;;;;;6.28;0.95;;;;;;;3.70;51.50;101642.19;4988559;28;19944;-80
2021/11/15 08:28:27;;;;;;;2.45;1.23;;;;;;;3.73;52.16;101648.38;4979245;28;20052;-80
2021/11/15 08:30:54;;;;;;;2.03;1.23;;;;;;;3.59;51.30;101644.22;5007578;28;20099;-83
2021/11/15 08:33:20;;;;;;;2.90;1.50;;;;;;;3.60;51.96;101657.19;4990296;28;20042;-79
2021/11/15 08:35:49;;;;;;;3.10;1.60;;;;;;;3.46;52.02;101635.03;4992118;28;20038;-80
2021/11/15 08:38:14;;;;;;;4.28;1.63;;;;;;;3.46;51.89;101653.94;4999260;28;20139;-78
2021/11/15 08:40:43;;;;;;;3.00;1.80;;;;;;;3.43;53.12;101653.78;4988686;28;20568;-79
2021/11/15 08:43:09;;;;;;;3.40;1.50;;;;;;;3.45;52.14;101629.00;4973799;28;20050;-80
2021/11/15 08:45:36;;;;;;;2.60;1.60;;;;;;;3.45;51.86;101635.81;4961593;28;20552;-82
2021/11/15 08:48:03;;;;;;;2.92;1.40;;;;;;;3.61;52.65;101653.81;4961749;28;20041;-80
2021/11/15 08:50:30;;;;;;;1.95;1.50;;;;;;;3.43;52.79;101625.47;4984655;28;20048;-79
2021/11/15 08:52:57;;;;;;;4.32;1.50;;;;;;;3.65;52.24;101661.66;4985434;28;20046;-80
2021/11/15 08:55:24;;;;;;;3.30;1.58;;;;;;;3.50;53.17;101636.94;4974307;28;20034;-79
2021/11/15 08:57:50;;;;;;;2.00;1.45;;;;;;;3.63;52.55;101681.34;4952571;28;20153;-81
2021/11/15 09:00:19;;;;;;;2.15;1.35;;;;;;;3.66;52.79;101687.50;4965748;28;20100;-79
2021/11/15 09:02:46;;;;;;;2.38;1.35;;;;;;;3.72;52.98;101692.06;4988477;28;20046;-78
2021/11/15 09:05:13;;;;;;;1.48;1.02;;;;;;;3.53;52.76;101660.28;4987047;28;20078;-79
2021/11/15 09:07:40;;;;;;;2.83;1.10;;;;;;;3.60;52.98;101682.94;4970387;28;20516;-79
2021/11/15 09:10:09;;;;;;;1.35;1.10;;;;;;;3.67;53.05;101715.03;4984527;28;20522;-80
2021/11/15 09:12:36;;;;;;;1.65;1.15;;;;;;;3.58;53.05;101697.44;4985879;28;20042;-79
2021/11/15 09:15:04;;;;;;;2.20;1.25;;;;;;;3.73;52.89;101714.44;5001833;28;20038;-80
2021/11/15 09:17:30;;;;;;;1.20;1.08;;;;;;;3.63;53.20;101715.69;4986653;28;20038;-82
2021/11/15 09:19:56;;;;;;;1.88;1.17;;;;;;;3.70;52.63;101714.28;4974235;28;20413;-81
2021/11/15 09:22:23;;;;;;;1.77;0.93;;;;;;;3.59;52.90;101677.69;4987395;28;20062;-80
2021/11/15 09:24:52;;;;;;;2.13;1.20;;;;;;;3.82;52.50;101721.72;4986277;28;20056;-79
2021/11/15 09:27:18;;;;;;;3.00;1.55;;;;;;;3.64;52.29;101693.41;4991302;28;20216;-80
2021/11/15 09:29:47;;;;;;;3.72;1.20;;;;;;;3.67;53.07;101703.81;4994980;28;20042;-78
2021/11/15 09:32:15;;;;;;;3.03;1.38;;;;;;;3.60;52.71;101700.06;5003872;28;20090;-78
2021/11/15 09:34:42;;;;;;;6.32;2.40;;;;;;;3.38;52.97;101667.22;4991420;28;20042;-79
2021/11/15 09:37:34;;;;;;;3.63;1.65;;;;;;;3.74;51.79;101753.16;4992136;28;20057;-79
2021/11/15 09:40:02;;;;;;;3.55;1.30;;;;;;;3.43;52.56;101699.22;4999733;28;20042;-78
2021/11/15 09:42:29;;;;;;;1.80;1.30;;;;;;;3.75;52.64;101754.03;4984641;28;20039;-80
2021/11/15 09:44:56;;;;;;;1.40;1.15;;;;;;;3.71;52.36;101747.84;4953967;28;20066;-78
2021/11/15 09:47:23;;;;;;;1.33;0.80;;;;;;;3.64;52.97;101740.63;4971997;28;20046;-78
2021/11/15 09:49:50;;;;;;;1.45;0.95;;;;;;;3.44;51.98;101690.69;4992598;28;20080;-79
2021/11/15 09:52:17;;;;;;;1.48;0.90;;;;;;;3.89;52.45;101763.31;5002253;28;20057;-77
2021/11/15 09:54:45;;;;;;;1.42;1.10;;;;;;;3.65;52.18;101732.09;5001837;28;20061;-77
2021/11/15 09:57:15;;;;;;;;;;;;;;;3.80;51.47;101761.97;5002885;28;20041;-78
2021/11/15 09:59:44;;;;;;;1.40;0.90;;;;;;;3.78;51.48;101769.66;5002596;28;19921;-78
2021/11/15 10:02:14;;;;;;;1.50;0.73;;;;;;;3.74;52.54;101750.59;4990556;28;20126;-77
2021/11/15 10:04:40;;;;;;;1.23;0.80;;;;;;;3.84;51.96;101753.59;4979611;28;20045;-78
2021/11/15 10:07:06;;;;;;;2.00;0.90;;;;;;;3.97;52.16;101760.25;4979964;28;20045;-79
2021/11/15 10:09:38;;;;;;;1.60;1.02;;;;;;;4.15;51.42;101762.84;4995989;28;20046;-79
2021/11/15 10:12:14;;;;;;;1.38;0.93;;;;;;;4.15;51.28;101770.59;4997544;28;20049;-78
2021/11/15 10:14:59;;;;;;;5.45;1.10;;;;;;;4.25;51.08;101779.66;5014202;28;20077;-80
2021/11/15 10:17:44;;;;;;;1.67;1.08;;;;;;;4.26;50.70;101779.72;4995165;28;20050;-81
2021/11/15 10:20:12;;;;;;;1.90;0.90;;;;;;;4.20;50.99;101777.72;4993887;28;20042;-78
2021/11/15 10:22:40;;;;;;;0.80;0.70;;;;;;;4.19;50.84;101781.13;5016378;28;20042;-79
2021/11/15 10:25:09;;;;;;;1.05;0.90;;;;;;;3.88;50.67;101748.66;4971814;28;20038;-77
2021/11/15 10:27:36;;;;;;;1.88;0.90;;;;;;;4.02;50.28;101779.41;5022188;28;20140;-78
2021/11/15 10:30:10;;;;;;;1.75;1.00;;;;;;;4.07;50.47;101798.56;5002587;28;20046;-79
2021/11/15 10:32:42;;;;;;;1.73;0.80;;;;;;;4.02;50.13;101787.13;4991832;28;21038;-78
2021/11/15 10:35:08;;;;;;;2.65;1.23;;;;;;;3.86;50.02;101780.31;5005400;28;20031;-77
2021/11/15 10:37:37;;;;;;;2.75;1.10;;;;;;;3.97;50.37;101807.53;5004910;28;20021;-79
2021/11/15 10:40:04;;;;;;;3.47;1.10;;;;;;;3.99;49.79;101805.00;4981138;28;20037;-78
2021/11/15 10:42:51;;;;;;;1.73;1.20;;;;;;;3.87;50.11;101785.53;5012975;28;20042;-80
2021/11/15 10:45:24;;;;;;;;;;;;;;;3.99;49.43;101805.00;4998183;28;20039;-79
2021/11/15 10:47:55;;;;;;;1.02;0.80;;;;;;;3.30;50.12;101708.03;4998984;28;19925;-80
2021/11/15 10:50:32;;;;;;;1.48;1.02;;;;;;;3.99;50.22;101821.34;4989960;28;20048;-79
2021/11/15 10:53:14;;;;;;;4.50;1.30;;;;;;;3.91;50.15;101800.34;5021924;28;20046;-78
2021/11/15 10:56:03;;;;;;;;;;;;;;;4.08;49.35;101810.63;4986967;28;20030;-82
2021/11/15 10:58:47;;;;;;;2.17;1.30;;;;;;;3.63;50.12;101748.28;5014482;28;19921;-81
2021/11/15 11:01:16;;;;;;;2.03;1.35;;;;;;;4.05;50.54;101825.94;4983093;28;20057;-81
2021/11/15 11:03:43;;;;;;;4.82;1.65;;;;;;;3.92;50.11;101803.81;4975247;28;20112;-81
2021/11/15 11:06:14;;;;;;;2.17;1.40;;;;;;;4.15;50.51;101835.88;5009453;28;20038;-80
2021/11/15 11:08:43;;;;;;;3.27;1.30;;;;;;;3.96;49.98;101799.69;5023370;28;20114;-80
2021/11/15 11:11:30;;;;;;;2.65;1.42;;;;;;;4.15;50.01;101835.00;4991112;28;20292;-78
2021/11/15 11:14:05;;;;;;;1.98;1.20;;;;;;;3.90;50.27;101811.47;5004713;28;20137;-78
2021/11/15 11:16:41;;;;;;;1.58;1.00;;;;;;;3.90;49.92;101842.38;4991078;28;20023;-80
2021/11/15 11:27:06;;;;;;;1.80;1.20;;;;;;;3.83;50.33;101842.88;4978726;28;20038;-78
2021/11/15 11:29:47;;;;;;;1.50;1.10;;;;;;;3.70;49.67;101843.94;4994256;28;20046;-80
2021/11/15 11:32:16;;;;;;;5.40;1.30;;;;;;;3.67;49.28;101864.38;5009000;28;20513;-80
2021/11/15 11:34:43;;;;;;;4.07;1.20;;;;;;;3.58;50.20;101859.63;4977623;28;20053;-78
2021/11/15 11:37:13;;;;;;;2.40;1.20;;;;;;;3.52;49.98;101861.88;4997781;28;20038;-79
2021/11/15 11:39:42;;;;;;;2.92;1.10;;;;;;;3.49;50.17;101865.97;5007109;28;20450;-80
2021/11/15 11:42:09;;;;;;;2.67;1.20;;;;;;;3.37;50.07;101843.06;5022566;28;21013;-81
2021/11/15 11:44:36;;;;;;;1.80;1.27;;;;;;;3.38;49.90;101855.13;5002452;28;20104;-80
2021/11/15 11:47:06;;;;;;;2.30;1.20;;;;;;;3.43;50.49;101879.38;5026131;28;20054;-81